sensor_id;sensor_type;location;lat;lon;timestamp;P1;durP1;ratioP1;P2;durP2;ratioP2
54823;SDS011;40724;53.196;5.980;2023-02-27T00:01:27;5.40;;;3.53;;
54823;SDS011;40724;53.196;5.980;2023-02-27T00:03:55;6.35;;;3.90;;
54823;SDS011;40724;53.196;5.980;2023-02-27T00:06:21;8.45;;;3.65;;
54823;SDS011;40724;53.196;5.980;2023-02-27T00:08:48;5.70;;;3.55;;
54823;SDS011;40724;53.196;5.980;2023-02-27T00:11:14;7.18;;;3.97;;
54823;SDS011;40724;53.196;5.980;2023-02-27T00:13:40;5.32;;;3.65;;
54823;SDS011;40724;53.196;5.980;2023-02-27T00:16:06;5.28;;;3.28;;
54823;SDS011;40724;53.196;5.980;2023-02-27T00:18:32;4.65;;;3.25;;
54823;SDS011;40724;53.196;5.980;2023-02-27T00:20:59;4.30;;;2.70;;
54823;SDS011;40724;53.196;5.980;2023-02-27T00:23:25;8.23;;;3.20;;
54823;SDS011;40724;53.196;5.980;2023-02-27T00:25:52;7.53;;;3.10;;
54823;SDS011;40724;53.196;5.980;2023-02-27T00:28:19;9.25;;;3.30;;
54823;SDS011;40724;53.196;5.980;2023-02-27T00:30:45;5.28;;;2.75;;
54823;SDS011;40724;53.196;5.980;2023-02-27T00:33:11;5.90;;;3.67;;
54823;SDS011;40724;53.196;5.980;2023-02-27T00:35:37;5.32;;;3.25;;
54823;SDS011;40724;53.196;5.980;2023-02-27T00:38:03;8.98;;;2.60;;
54823;SDS011;40724;53.196;5.980;2023-02-27T00:40:29;5.60;;;2.65;;
54823;SDS011;40724;53.196;5.980;2023-02-27T00:42:56;6.25;;;3.05;;
54823;SDS011;40724;53.196;5.980;2023-02-27T00:45:22;7.50;;;3.35;;
54823;SDS011;40724;53.196;5.980;2023-02-27T00:47:48;6.70;;;3.10;;
54823;SDS011;40724;53.196;5.980;2023-02-27T00:50:14;4.60;;;2.85;;
54823;SDS011;40724;53.196;5.980;2023-02-27T00:52:41;5.10;;;3.03;;
54823;SDS011;40724;53.196;5.980;2023-02-27T00:55:07;5.40;;;3.20;;
54823;SDS011;40724;53.196;5.980;2023-02-27T00:57:33;7.80;;;3.80;;
54823;SDS011;40724;53.196;5.980;2023-02-27T00:59:59;4.68;;;2.85;;
54823;SDS011;40724;53.196;5.980;2023-02-27T01:02:26;4.28;;;2.50;;
54823;SDS011;40724;53.196;5.980;2023-02-27T01:04:52;4.68;;;3.88;;
54823;SDS011;40724;53.196;5.980;2023-02-27T01:07:18;6.30;;;2.58;;
54823;SDS011;40724;53.196;5.980;2023-02-27T01:09:44;6.32;;;3.08;;
54823;SDS011;40724;53.196;5.980;2023-02-27T01:12:10;8.02;;;2.95;;
54823;SDS011;40724;53.196;5.980;2023-02-27T01:14:36;12.07;;;3.03;;
54823;SDS011;40724;53.196;5.980;2023-02-27T01:17:03;8.55;;;3.03;;
54823;SDS011;40724;53.196;5.980;2023-02-27T01:19:29;5.50;;;2.65;;
54823;SDS011;40724;53.196;5.980;2023-02-27T01:21:55;5.40;;;2.85;;
54823;SDS011;40724;53.196;5.980;2023-02-27T01:24:21;4.80;;;3.05;;
54823;SDS011;40724;53.196;5.980;2023-02-27T01:26:47;7.43;;;2.90;;
54823;SDS011;40724;53.196;5.980;2023-02-27T01:29:14;5.63;;;2.75;;
54823;SDS011;40724;53.196;5.980;2023-02-27T01:31:40;6.53;;;3.40;;
54823;SDS011;40724;53.196;5.980;2023-02-27T01:34:06;5.00;;;2.83;;
54823;SDS011;40724;53.196;5.980;2023-02-27T01:36:32;6.80;;;2.78;;
54823;SDS011;40724;53.196;5.980;2023-02-27T01:38:58;5.53;;;3.03;;
54823;SDS011;40724;53.196;5.980;2023-02-27T01:41:24;8.00;;;3.13;;
54823;SDS011;40724;53.196;5.980;2023-02-27T01:46:23;4.80;;;2.60;;
54823;SDS011;40724;53.196;5.980;2023-02-27T01:48:50;5.82;;;3.22;;
54823;SDS011;40724;53.196;5.980;2023-02-27T01:51:19;5.32;;;2.95;;
54823;SDS011;40724;53.196;5.980;2023-02-27T01:53:47;12.02;;;3.10;;
54823;SDS011;40724;53.196;5.980;2023-02-27T01:56:19;6.55;;;3.53;;
54823;SDS011;40724;53.196;5.980;2023-02-27T01:58:46;4.35;;;2.75;;
54823;SDS011;40724;53.196;5.980;2023-02-27T02:01:13;7.00;;;3.25;;
54823;SDS011;40724;53.196;5.980;2023-02-27T02:06:05;5.30;;;2.95;;
54823;SDS011;40724;53.196;5.980;2023-02-27T02:08:34;6.15;;;3.03;;
54823;SDS011;40724;53.196;5.980;2023-02-27T02:11:01;6.65;;;2.83;;
54823;SDS011;40724;53.196;5.980;2023-02-27T02:13:27;4.25;;;2.58;;
54823;SDS011;40724;53.196;5.980;2023-02-27T02:29:14;4.28;;;2.40;;
54823;SDS011;40724;53.196;5.980;2023-02-27T02:39:57;4.90;;;2.28;;
54823;SDS011;40724;53.196;5.980;2023-02-27T02:42:33;7.43;;;2.80;;
54823;SDS011;40724;53.196;5.980;2023-02-27T02:45:06;9.02;;;2.50;;
54823;SDS011;40724;53.196;5.980;2023-02-27T02:56:09;6.15;;;2.65;;
54823;SDS011;40724;53.196;5.980;2023-02-27T03:00:38;4.97;;;2.30;;
54823;SDS011;40724;53.196;5.980;2023-02-27T03:03:08;4.35;;;1.95;;
54823;SDS011;40724;53.196;5.980;2023-02-27T03:05:59;8.18;;;2.67;;
54823;SDS011;40724;53.196;5.980;2023-02-27T03:08:23;6.80;;;3.20;;
54823;SDS011;40724;53.196;5.980;2023-02-27T03:10:53;13.82;;;2.65;;
54823;SDS011;40724;53.196;5.980;2023-02-27T03:15:53;6.00;;;2.35;;
54823;SDS011;40724;53.196;5.980;2023-02-27T03:18:21;6.20;;;1.98;;
54823;SDS011;40724;53.196;5.980;2023-02-27T03:20:53;2.75;;;1.98;;
54823;SDS011;40724;53.196;5.980;2023-02-27T03:23:42;2.60;;;1.98;;
54823;SDS011;40724;53.196;5.980;2023-02-27T03:26:07;4.90;;;2.10;;
54823;SDS011;40724;53.196;5.980;2023-02-27T03:28:35;4.00;;;1.63;;
54823;SDS011;40724;53.196;5.980;2023-02-27T03:31:05;2.70;;;1.70;;
54823;SDS011;40724;53.196;5.980;2023-02-27T03:33:47;5.75;;;1.55;;
54823;SDS011;40724;53.196;5.980;2023-02-27T03:36:18;3.05;;;1.75;;
54823;SDS011;40724;53.196;5.980;2023-02-27T03:38:53;2.58;;;1.70;;
54823;SDS011;40724;53.196;5.980;2023-02-27T03:44:00;4.57;;;2.30;;
54823;SDS011;40724;53.196;5.980;2023-02-27T03:46:27;2.63;;;1.83;;
54823;SDS011;40724;53.196;5.980;2023-02-27T03:48:53;11.75;;;2.42;;
54823;SDS011;40724;53.196;5.980;2023-02-27T03:51:20;3.00;;;1.70;;
54823;SDS011;40724;53.196;5.980;2023-02-27T03:54:04;6.15;;;1.90;;
54823;SDS011;40724;53.196;5.980;2023-02-27T03:56:34;6.05;;;2.55;;
54823;SDS011;40724;53.196;5.980;2023-02-27T03:59:03;2.65;;;1.83;;
54823;SDS011;40724;53.196;5.980;2023-02-27T04:01:29;5.28;;;2.38;;
54823;SDS011;40724;53.196;5.980;2023-02-27T04:03:56;5.93;;;2.20;;
54823;SDS011;40724;53.196;5.980;2023-02-27T04:06:23;4.72;;;2.95;;
54823;SDS011;40724;53.196;5.980;2023-02-27T04:17:21;3.53;;;1.92;;
54823;SDS011;40724;53.196;5.980;2023-02-27T04:20:07;6.63;;;1.55;;
54823;SDS011;40724;53.196;5.980;2023-02-27T04:22:38;4.38;;;2.05;;
54823;SDS011;40724;53.196;5.980;2023-02-27T04:35:33;10.02;;;2.85;;
54823;SDS011;40724;53.196;5.980;2023-02-27T04:40:27;3.33;;;1.65;;
54823;SDS011;40724;53.196;5.980;2023-02-27T04:42:54;7.68;;;2.55;;
54823;SDS011;40724;53.196;5.980;2023-02-27T04:45:22;6.03;;;2.30;;
54823;SDS011;40724;53.196;5.980;2023-02-27T04:47:54;3.53;;;1.92;;
54823;SDS011;40724;53.196;5.980;2023-02-27T04:55:46;3.78;;;1.65;;
54823;SDS011;40724;53.196;5.980;2023-02-27T05:00:40;4.38;;;2.00;;
54823;SDS011;40724;53.196;5.980;2023-02-27T05:03:10;7.68;;;2.65;;
54823;SDS011;40724;53.196;5.980;2023-02-27T05:05:38;8.40;;;2.45;;
54823;SDS011;40724;53.196;5.980;2023-02-27T05:08:12;4.90;;;2.00;;
54823;SDS011;40724;53.196;5.980;2023-02-27T05:10:45;11.80;;;2.15;;
54823;SDS011;40724;53.196;5.980;2023-02-27T05:13:15;7.00;;;1.67;;
54823;SDS011;40724;53.196;5.980;2023-02-27T05:15:47;14.82;;;2.63;;
54823;SDS011;40724;53.196;5.980;2023-02-27T05:18:15;6.75;;;2.10;;
54823;SDS011;40724;53.196;5.980;2023-02-27T05:23:12;5.13;;;2.15;;
54823;SDS011;40724;53.196;5.980;2023-02-27T05:28:16;7.57;;;2.42;;
54823;SDS011;40724;53.196;5.980;2023-02-27T05:33:14;6.45;;;2.42;;
54823;SDS011;40724;53.196;5.980;2023-02-27T05:38:28;6.72;;;2.33;;
54823;SDS011;40724;53.196;5.980;2023-02-27T05:40:59;3.10;;;1.50;;
54823;SDS011;40724;53.196;5.980;2023-02-27T05:43:27;7.18;;;3.00;;
54823;SDS011;40724;53.196;5.980;2023-02-27T05:45:58;5.38;;;2.00;;
54823;SDS011;40724;53.196;5.980;2023-02-27T05:48:26;3.47;;;1.63;;
54823;SDS011;40724;53.196;5.980;2023-02-27T05:50:54;14.50;;;2.33;;
54823;SDS011;40724;53.196;5.980;2023-02-27T05:53:21;4.70;;;1.88;;
54823;SDS011;40724;53.196;5.980;2023-02-27T05:55:50;4.28;;;2.25;;
54823;SDS011;40724;53.196;5.980;2023-02-27T05:58:18;6.78;;;1.60;;
54823;SDS011;40724;53.196;5.980;2023-02-27T06:03:27;6.75;;;2.00;;
54823;SDS011;40724;53.196;5.980;2023-02-27T06:05:54;3.78;;;2.08;;
54823;SDS011;40724;53.196;5.980;2023-02-27T06:08:22;4.25;;;1.95;;
54823;SDS011;40724;53.196;5.980;2023-02-27T06:10:48;7.10;;;2.72;;
54823;SDS011;40724;53.196;5.980;2023-02-27T06:13:14;7.75;;;3.63;;
54823;SDS011;40724;53.196;5.980;2023-02-27T06:15:44;6.18;;;2.83;;
54823;SDS011;40724;53.196;5.980;2023-02-27T06:18:11;7.78;;;2.22;;
54823;SDS011;40724;53.196;5.980;2023-02-27T06:20:38;12.43;;;2.88;;
54823;SDS011;40724;53.196;5.980;2023-02-27T06:23:04;5.97;;;3.05;;
54823;SDS011;40724;53.196;5.980;2023-02-27T06:25:30;6.72;;;2.90;;
54823;SDS011;40724;53.196;5.980;2023-02-27T06:27:56;4.47;;;3.05;;
54823;SDS011;40724;53.196;5.980;2023-02-27T06:30:23;7.80;;;4.18;;
54823;SDS011;40724;53.196;5.980;2023-02-27T06:32:49;7.28;;;3.38;;
54823;SDS011;40724;53.196;5.980;2023-02-27T06:35:15;7.32;;;3.10;;
54823;SDS011;40724;53.196;5.980;2023-02-27T06:37:41;9.70;;;3.70;;
54823;SDS011;40724;53.196;5.980;2023-02-27T06:40:07;6.28;;;3.13;;
54823;SDS011;40724;53.196;5.980;2023-02-27T06:42:36;7.25;;;3.25;;
54823;SDS011;40724;53.196;5.980;2023-02-27T06:45:02;5.00;;;3.13;;
54823;SDS011;40724;53.196;5.980;2023-02-27T06:47:28;8.50;;;3.88;;
54823;SDS011;40724;53.196;5.980;2023-02-27T06:49:55;7.38;;;3.25;;
54823;SDS011;40724;53.196;5.980;2023-02-27T06:52:21;5.75;;;3.78;;
54823;SDS011;40724;53.196;5.980;2023-02-27T06:54:48;4.68;;;3.35;;
54823;SDS011;40724;53.196;5.980;2023-02-27T06:57:14;6.63;;;3.22;;
54823;SDS011;40724;53.196;5.980;2023-02-27T06:59:40;12.70;;;4.43;;
54823;SDS011;40724;53.196;5.980;2023-02-27T07:02:08;8.82;;;3.25;;
54823;SDS011;40724;53.196;5.980;2023-02-27T07:04:34;8.10;;;3.40;;
54823;SDS011;40724;53.196;5.980;2023-02-27T07:07:01;11.40;;;4.65;;
54823;SDS011;40724;53.196;5.980;2023-02-27T07:09:27;9.48;;;4.93;;
54823;SDS011;40724;53.196;5.980;2023-02-27T07:11:53;9.40;;;4.00;;
54823;SDS011;40724;53.196;5.980;2023-02-27T07:14:19;10.60;;;4.07;;
54823;SDS011;40724;53.196;5.980;2023-02-27T07:16:45;22.63;;;6.35;;
54823;SDS011;40724;53.196;5.980;2023-02-27T07:19:15;35.47;;;7.50;;
54823;SDS011;40724;53.196;5.980;2023-02-27T07:21:42;22.25;;;5.80;;
54823;SDS011;40724;53.196;5.980;2023-02-27T07:24:09;34.00;;;7.53;;
54823;SDS011;40724;53.196;5.980;2023-02-27T07:26:35;28.50;;;6.97;;
54823;SDS011;40724;53.196;5.980;2023-02-27T07:29:01;18.80;;;5.80;;
54823;SDS011;40724;53.196;5.980;2023-02-27T07:31:28;22.15;;;6.07;;
54823;SDS011;40724;53.196;5.980;2023-02-27T07:33:54;24.15;;;7.20;;
54823;SDS011;40724;53.196;5.980;2023-02-27T07:36:20;10.25;;;4.63;;
54823;SDS011;40724;53.196;5.980;2023-02-27T07:38:46;15.80;;;4.97;;
54823;SDS011;40724;53.196;5.980;2023-02-27T07:41:13;13.07;;;4.78;;
54823;SDS011;40724;53.196;5.980;2023-02-27T07:43:39;12.10;;;4.38;;
54823;SDS011;40724;53.196;5.980;2023-02-27T07:46:05;15.43;;;5.00;;
54823;SDS011;40724;53.196;5.980;2023-02-27T07:48:31;5.82;;;3.90;;
54823;SDS011;40724;53.196;5.980;2023-02-27T07:50:58;10.38;;;4.53;;
54823;SDS011;40724;53.196;5.980;2023-02-27T07:53:24;11.55;;;4.47;;
54823;SDS011;40724;53.196;5.980;2023-02-27T07:55:51;9.02;;;4.55;;
54823;SDS011;40724;53.196;5.980;2023-02-27T07:58:17;7.03;;;3.45;;
54823;SDS011;40724;53.196;5.980;2023-02-27T08:00:43;11.52;;;4.90;;
54823;SDS011;40724;53.196;5.980;2023-02-27T08:03:09;9.15;;;3.58;;
54823;SDS011;40724;53.196;5.980;2023-02-27T08:05:35;4.68;;;3.70;;
54823;SDS011;40724;53.196;5.980;2023-02-27T08:08:02;9.63;;;4.20;;
54823;SDS011;40724;53.196;5.980;2023-02-27T08:10:28;7.90;;;3.83;;
54823;SDS011;40724;53.196;5.980;2023-02-27T08:12:54;9.32;;;3.95;;
54823;SDS011;40724;53.196;5.980;2023-02-27T08:15:21;6.38;;;4.20;;
54823;SDS011;40724;53.196;5.980;2023-02-27T08:17:47;8.70;;;4.78;;
54823;SDS011;40724;53.196;5.980;2023-02-27T08:20:13;12.20;;;4.28;;
54823;SDS011;40724;53.196;5.980;2023-02-27T08:22:40;7.72;;;4.13;;
54823;SDS011;40724;53.196;5.980;2023-02-27T08:25:07;9.30;;;4.07;;
54823;SDS011;40724;53.196;5.980;2023-02-27T08:27:35;6.47;;;2.90;;
54823;SDS011;40724;53.196;5.980;2023-02-27T08:30:02;8.57;;;3.42;;
54823;SDS011;40724;53.196;5.980;2023-02-27T08:32:28;14.73;;;3.70;;
54823;SDS011;40724;53.196;5.980;2023-02-27T08:34:54;6.13;;;3.50;;
54823;SDS011;40724;53.196;5.980;2023-02-27T08:37:20;7.72;;;3.33;;
54823;SDS011;40724;53.196;5.980;2023-02-27T08:39:46;8.82;;;3.13;;
54823;SDS011;40724;53.196;5.980;2023-02-27T08:42:12;5.40;;;3.17;;
54823;SDS011;40724;53.196;5.980;2023-02-27T08:44:39;6.13;;;3.20;;
54823;SDS011;40724;53.196;5.980;2023-02-27T08:47:06;11.13;;;3.75;;
54823;SDS011;40724;53.196;5.980;2023-02-27T08:49:32;6.30;;;3.88;;
54823;SDS011;40724;53.196;5.980;2023-02-27T08:51:58;7.97;;;3.85;;
54823;SDS011;40724;53.196;5.980;2023-02-27T08:54:25;5.93;;;3.00;;
54823;SDS011;40724;53.196;5.980;2023-02-27T08:56:51;7.47;;;3.70;;
54823;SDS011;40724;53.196;5.980;2023-02-27T08:59:17;7.22;;;3.22;;
54823;SDS011;40724;53.196;5.980;2023-02-27T09:01:43;8.15;;;3.47;;
54823;SDS011;40724;53.196;5.980;2023-02-27T09:04:09;6.47;;;3.83;;
54823;SDS011;40724;53.196;5.980;2023-02-27T09:06:35;10.57;;;3.63;;
54823;SDS011;40724;53.196;5.980;2023-02-27T09:09:02;5.78;;;2.85;;
54823;SDS011;40724;53.196;5.980;2023-02-27T09:11:29;10.60;;;2.95;;
54823;SDS011;40724;53.196;5.980;2023-02-27T09:13:55;10.93;;;3.10;;
54823;SDS011;40724;53.196;5.980;2023-02-27T09:16:23;5.75;;;3.38;;
54823;SDS011;40724;53.196;5.980;2023-02-27T09:18:49;7.32;;;3.00;;
54823;SDS011;40724;53.196;5.980;2023-02-27T09:21:16;7.00;;;2.78;;
54823;SDS011;40724;53.196;5.980;2023-02-27T09:23:42;5.95;;;3.33;;
54823;SDS011;40724;53.196;5.980;2023-02-27T09:26:08;7.03;;;3.05;;
54823;SDS011;40724;53.196;5.980;2023-02-27T09:28:35;15.20;;;3.45;;
54823;SDS011;40724;53.196;5.980;2023-02-27T09:31:02;8.23;;;2.90;;
54823;SDS011;40724;53.196;5.980;2023-02-27T09:33:30;7.20;;;3.25;;
54823;SDS011;40724;53.196;5.980;2023-02-27T09:35:56;8.48;;;2.35;;
54823;SDS011;40724;53.196;5.980;2023-02-27T09:38:22;12.48;;;3.17;;
54823;SDS011;40724;53.196;5.980;2023-02-27T09:40:49;5.43;;;2.35;;
54823;SDS011;40724;53.196;5.980;2023-02-27T09:43:18;8.32;;;2.60;;
54823;SDS011;40724;53.196;5.980;2023-02-27T09:45:45;11.13;;;2.47;;
54823;SDS011;40724;53.196;5.980;2023-02-27T09:48:31;4.95;;;2.10;;
54823;SDS011;40724;53.196;5.980;2023-02-27T09:50:59;4.80;;;2.10;;
54823;SDS011;40724;53.196;5.980;2023-02-27T09:53:27;8.15;;;2.38;;
54823;SDS011;40724;53.196;5.980;2023-02-27T09:55:56;8.02;;;2.47;;
54823;SDS011;40724;53.196;5.980;2023-02-27T10:00:54;6.85;;;2.20;;
54823;SDS011;40724;53.196;5.980;2023-02-27T10:04:01;6.18;;;2.45;;
54823;SDS011;40724;53.196;5.980;2023-02-27T10:16:47;3.65;;;1.42;;
54823;SDS011;40724;53.196;5.980;2023-02-27T10:19:16;3.15;;;1.58;;
54823;SDS011;40724;53.196;5.980;2023-02-27T10:21:47;4.45;;;1.45;;
54823;SDS011;40724;53.196;5.980;2023-02-27T10:24:28;4.07;;;2.17;;
54823;SDS011;40724;53.196;5.980;2023-02-27T10:27:04;5.60;;;1.55;;
54823;SDS011;40724;53.196;5.980;2023-02-27T10:29:37;4.32;;;1.77;;
54823;SDS011;40724;53.196;5.980;2023-02-27T10:32:21;5.00;;;1.90;;
54823;SDS011;40724;53.196;5.980;2023-02-27T10:34:53;2.55;;;1.17;;
54823;SDS011;40724;53.196;5.980;2023-02-27T10:37:20;5.43;;;1.50;;
54823;SDS011;40724;53.196;5.980;2023-02-27T10:39:55;4.60;;;1.60;;
54823;SDS011;40724;53.196;5.980;2023-02-27T10:42:24;5.30;;;1.40;;
54823;SDS011;40724;53.196;5.980;2023-02-27T10:44:51;4.40;;;1.60;;
54823;SDS011;40724;53.196;5.980;2023-02-27T10:57:41;2.55;;;1.10;;
54823;SDS011;40724;53.196;5.980;2023-02-27T11:00:09;3.13;;;1.00;;
54823;SDS011;40724;53.196;5.980;2023-02-27T11:02:49;4.03;;;1.20;;
54823;SDS011;40724;53.196;5.980;2023-02-27T11:07:52;3.30;;;1.50;;
54823;SDS011;40724;53.196;5.980;2023-02-27T11:10:24;2.58;;;0.98;;
54823;SDS011;40724;53.196;5.980;2023-02-27T11:13:02;4.60;;;1.40;;
54823;SDS011;40724;53.196;5.980;2023-02-27T11:15:31;1.50;;;1.33;;
54823;SDS011;40724;53.196;5.980;2023-02-27T11:18:18;4.38;;;0.90;;
54823;SDS011;40724;53.196;5.980;2023-02-27T11:20:53;2.60;;;0.95;;
54823;SDS011;40724;53.196;5.980;2023-02-27T11:23:32;1.10;;;0.90;;
54823;SDS011;40724;53.196;5.980;2023-02-27T11:31:32;2.70;;;0.77;;
54823;SDS011;40724;53.196;5.980;2023-02-27T11:34:00;1.13;;;0.65;;
54823;SDS011;40724;53.196;5.980;2023-02-27T11:36:38;3.55;;;0.80;;
54823;SDS011;40724;53.196;5.980;2023-02-27T11:39:04;1.13;;;0.68;;
54823;SDS011;40724;53.196;5.980;2023-02-27T11:41:31;5.03;;;1.48;;
54823;SDS011;40724;53.196;5.980;2023-02-27T11:43:58;2.80;;;0.70;;
54823;SDS011;40724;53.196;5.980;2023-02-27T11:46:27;2.53;;;0.93;;
54823;SDS011;40724;53.196;5.980;2023-02-27T11:49:00;1.25;;;0.57;;
54823;SDS011;40724;53.196;5.980;2023-02-27T11:51:45;1.88;;;0.60;;
54823;SDS011;40724;53.196;5.980;2023-02-27T11:54:44;2.45;;;0.80;;
54823;SDS011;40724;53.196;5.980;2023-02-27T11:57:28;1.75;;;0.60;;
54823;SDS011;40724;53.196;5.980;2023-02-27T12:05:23;1.20;;;0.60;;
54823;SDS011;40724;53.196;5.980;2023-02-27T12:07:58;1.38;;;0.70;;
54823;SDS011;40724;53.196;5.980;2023-02-27T12:13:26;0.73;;;0.63;;
54823;SDS011;40724;53.196;5.980;2023-02-27T12:21:21;0.68;;;0.47;;
54823;SDS011;40724;53.196;5.980;2023-02-27T12:23:53;2.53;;;0.85;;
54823;SDS011;40724;53.196;5.980;2023-02-27T12:26:28;1.65;;;0.55;;
54823;SDS011;40724;53.196;5.980;2023-02-27T12:32:10;0.57;;;0.50;;
54823;SDS011;40724;53.196;5.980;2023-02-27T12:34:47;1.08;;;0.63;;
54823;SDS011;40724;53.196;5.980;2023-02-27T12:37:24;1.08;;;0.50;;
54823;SDS011;40724;53.196;5.980;2023-02-27T12:39:53;1.23;;;0.50;;
54823;SDS011;40724;53.196;5.980;2023-02-27T12:42:28;1.15;;;0.40;;
54823;SDS011;40724;53.196;5.980;2023-02-27T12:56:39;2.03;;;0.70;;
54823;SDS011;40724;53.196;5.980;2023-02-27T13:05:10;0.90;;;0.47;;
54823;SDS011;40724;53.196;5.980;2023-02-27T13:15:54;2.25;;;0.75;;
54823;SDS011;40724;53.196;5.980;2023-02-27T13:21:10;1.48;;;0.85;;
54823;SDS011;40724;53.196;5.980;2023-02-27T13:24:15;1.08;;;0.60;;
54823;SDS011;40724;53.196;5.980;2023-02-27T13:26:32;1.20;;;0.60;;
54823;SDS011;40724;53.196;5.980;2023-02-27T13:29:03;2.38;;;0.52;;
54823;SDS011;40724;53.196;5.980;2023-02-27T13:34:47;1.65;;;0.60;;
54823;SDS011;40724;53.196;5.980;2023-02-27T13:37:17;1.98;;;0.73;;
54823;SDS011;40724;53.196;5.980;2023-02-27T13:44:55;1.35;;;0.60;;
54823;SDS011;40724;53.196;5.980;2023-02-27T13:49:54;0.67;;;0.60;;
54823;SDS011;40724;53.196;5.980;2023-02-27T13:52:29;1.63;;;0.75;;
54823;SDS011;40724;53.196;5.980;2023-02-27T13:54:57;0.40;;;0.40;;
54823;SDS011;40724;53.196;5.980;2023-02-27T13:57:27;2.17;;;0.80;;
54823;SDS011;40724;53.196;5.980;2023-02-27T13:59:57;1.83;;;0.50;;
54823;SDS011;40724;53.196;5.980;2023-02-27T14:02:28;2.00;;;1.15;;
54823;SDS011;40724;53.196;5.980;2023-02-27T14:04:56;2.92;;;0.77;;
54823;SDS011;40724;53.196;5.980;2023-02-27T14:07:24;4.20;;;1.58;;
54823;SDS011;40724;53.196;5.980;2023-02-27T14:09:52;2.42;;;0.88;;
54823;SDS011;40724;53.196;5.980;2023-02-27T14:12:35;7.53;;;1.10;;
54823;SDS011;40724;53.196;5.980;2023-02-27T14:15:03;3.13;;;0.80;;
54823;SDS011;40724;53.196;5.980;2023-02-27T14:28:11;0.40;;;0.40;;
54823;SDS011;40724;53.196;5.980;2023-02-27T14:30:41;1.10;;;0.60;;
54823;SDS011;40724;53.196;5.980;2023-02-27T14:33:42;1.90;;;0.70;;
54823;SDS011;40724;53.196;5.980;2023-02-27T14:36:04;0.93;;;0.52;;
54823;SDS011;40724;53.196;5.980;2023-02-27T14:38:31;1.77;;;0.40;;
54823;SDS011;40724;53.196;5.980;2023-02-27T14:41:04;1.13;;;0.63;;
54823;SDS011;40724;53.196;5.980;2023-02-27T14:44:15;1.45;;;0.65;;
54823;SDS011;40724;53.196;5.980;2023-02-27T14:48:54;2.20;;;0.77;;
54823;SDS011;40724;53.196;5.980;2023-02-27T14:51:21;2.35;;;0.98;;
54823;SDS011;40724;53.196;5.980;2023-02-27T14:54:12;8.02;;;1.27;;
54823;SDS011;40724;53.196;5.980;2023-02-27T14:56:39;2.42;;;0.70;;
54823;SDS011;40724;53.196;5.980;2023-02-27T14:59:24;4.22;;;1.10;;
54823;SDS011;40724;53.196;5.980;2023-02-27T15:01:51;1.23;;;0.70;;
54823;SDS011;40724;53.196;5.980;2023-02-27T15:04:19;1.83;;;1.30;;
54823;SDS011;40724;53.196;5.980;2023-02-27T15:06:47;2.80;;;1.08;;
54823;SDS011;40724;53.196;5.980;2023-02-27T15:09:20;2.65;;;1.08;;
54823;SDS011;40724;53.196;5.980;2023-02-27T15:11:47;3.45;;;0.60;;
54823;SDS011;40724;53.196;5.980;2023-02-27T15:14:18;1.40;;;0.70;;
54823;SDS011;40724;53.196;5.980;2023-02-27T15:16:49;0.70;;;0.50;;
54823;SDS011;40724;53.196;5.980;2023-02-27T15:19:20;4.25;;;0.90;;
54823;SDS011;40724;53.196;5.980;2023-02-27T15:21:51;2.80;;;0.80;;
54823;SDS011;40724;53.196;5.980;2023-02-27T15:26:52;1.35;;;0.93;;
54823;SDS011;40724;53.196;5.980;2023-02-27T15:29:21;3.65;;;1.67;;
54823;SDS011;40724;53.196;5.980;2023-02-27T15:31:49;2.97;;;1.10;;
54823;SDS011;40724;53.196;5.980;2023-02-27T15:34:16;1.65;;;0.82;;
54823;SDS011;40724;53.196;5.980;2023-02-27T15:36:52;2.10;;;1.00;;
54823;SDS011;40724;53.196;5.980;2023-02-27T15:39:21;3.85;;;0.90;;
54823;SDS011;40724;53.196;5.980;2023-02-27T15:41:58;2.28;;;0.75;;
54823;SDS011;40724;53.196;5.980;2023-02-27T15:44:27;2.10;;;0.88;;
54823;SDS011;40724;53.196;5.980;2023-02-27T15:46:57;6.25;;;1.00;;
54823;SDS011;40724;53.196;5.980;2023-02-27T15:49:23;2.20;;;0.73;;
54823;SDS011;40724;53.196;5.980;2023-02-27T15:52:00;2.22;;;0.82;;
54823;SDS011;40724;53.196;5.980;2023-02-27T15:54:43;1.92;;;0.63;;
54823;SDS011;40724;53.196;5.980;2023-02-27T15:57:19;1.38;;;0.73;;
54823;SDS011;40724;53.196;5.980;2023-02-27T15:59:47;3.22;;;1.30;;
54823;SDS011;40724;53.196;5.980;2023-02-27T16:02:16;4.28;;;0.90;;
54823;SDS011;40724;53.196;5.980;2023-02-27T16:04:53;0.98;;;0.60;;
54823;SDS011;40724;53.196;5.980;2023-02-27T16:07:20;0.75;;;0.57;;
54823;SDS011;40724;53.196;5.980;2023-02-27T16:09:48;1.20;;;0.70;;
54823;SDS011;40724;53.196;5.980;2023-02-27T16:14:48;8.05;;;1.10;;
54823;SDS011;40724;53.196;5.980;2023-02-27T16:17:30;6.45;;;1.10;;
54823;SDS011;40724;53.196;5.980;2023-02-27T16:19:58;7.15;;;1.67;;
54823;SDS011;40724;53.196;5.980;2023-02-27T16:22:25;1.50;;;0.90;;
54823;SDS011;40724;53.196;5.980;2023-02-27T16:24:51;1.33;;;0.80;;
54823;SDS011;40724;53.196;5.980;2023-02-27T16:27:27;1.42;;;0.70;;
54823;SDS011;40724;53.196;5.980;2023-02-27T16:29:54;1.08;;;0.63;;
54823;SDS011;40724;53.196;5.980;2023-02-27T16:34:50;7.38;;;1.10;;
54823;SDS011;40724;53.196;5.980;2023-02-27T16:37:36;1.13;;;0.90;;
54823;SDS011;40724;53.196;5.980;2023-02-27T16:40:07;5.30;;;0.77;;
54823;SDS011;40724;53.196;5.980;2023-02-27T16:42:35;4.45;;;1.15;;
54823;SDS011;40724;53.196;5.980;2023-02-27T16:45:01;2.28;;;1.05;;
54823;SDS011;40724;53.196;5.980;2023-02-27T16:47:27;2.42;;;0.90;;
54823;SDS011;40724;53.196;5.980;2023-02-27T16:49:53;1.60;;;0.90;;
54823;SDS011;40724;53.196;5.980;2023-02-27T16:52:19;4.85;;;2.35;;
54823;SDS011;40724;53.196;5.980;2023-02-27T16:54:46;2.05;;;1.00;;
54823;SDS011;40724;53.196;5.980;2023-02-27T16:57:13;2.75;;;0.90;;
54823;SDS011;40724;53.196;5.980;2023-02-27T16:59:39;4.63;;;1.10;;
54823;SDS011;40724;53.196;5.980;2023-02-27T17:02:14;4.15;;;1.52;;
54823;SDS011;40724;53.196;5.980;2023-02-27T17:04:41;6.43;;;2.13;;
54823;SDS011;40724;53.196;5.980;2023-02-27T17:07:09;13.27;;;3.00;;
54823;SDS011;40724;53.196;5.980;2023-02-27T17:09:37;22.90;;;4.55;;
54823;SDS011;40724;53.196;5.980;2023-02-27T17:12:03;13.15;;;2.25;;
54823;SDS011;40724;53.196;5.980;2023-02-27T17:14:29;4.88;;;1.10;;
54823;SDS011;40724;53.196;5.980;2023-02-27T17:16:55;3.88;;;1.10;;
54823;SDS011;40724;53.196;5.980;2023-02-27T17:19:21;4.65;;;1.08;;
54823;SDS011;40724;53.196;5.980;2023-02-27T17:21:48;3.00;;;1.00;;
54823;SDS011;40724;53.196;5.980;2023-02-27T17:24:15;5.10;;;1.15;;
54823;SDS011;40724;53.196;5.980;2023-02-27T17:26:41;2.63;;;1.40;;
54823;SDS011;40724;53.196;5.980;2023-02-27T17:29:13;2.45;;;1.35;;
54823;SDS011;40724;53.196;5.980;2023-02-27T17:31:40;1.88;;;0.82;;
54823;SDS011;40724;53.196;5.980;2023-02-27T17:34:07;6.60;;;1.58;;
54823;SDS011;40724;53.196;5.980;2023-02-27T17:36:34;5.53;;;1.75;;
54823;SDS011;40724;53.196;5.980;2023-02-27T17:39:00;3.05;;;1.48;;
54823;SDS011;40724;53.196;5.980;2023-02-27T17:41:27;3.38;;;1.70;;
54823;SDS011;40724;53.196;5.980;2023-02-27T17:43:54;3.40;;;1.90;;
54823;SDS011;40724;53.196;5.980;2023-02-27T17:46:24;4.05;;;2.20;;
54823;SDS011;40724;53.196;5.980;2023-02-27T17:48:50;4.07;;;1.98;;
54823;SDS011;40724;53.196;5.980;2023-02-27T17:51:18;4.28;;;2.10;;
54823;SDS011;40724;53.196;5.980;2023-02-27T17:53:44;8.38;;;2.33;;
54823;SDS011;40724;53.196;5.980;2023-02-27T17:56:11;3.92;;;1.92;;
54823;SDS011;40724;53.196;5.980;2023-02-27T17:58:37;5.63;;;2.33;;
54823;SDS011;40724;53.196;5.980;2023-02-27T18:01:08;5.38;;;1.95;;
54823;SDS011;40724;53.196;5.980;2023-02-27T18:03:35;8.65;;;2.53;;
54823;SDS011;40724;53.196;5.980;2023-02-27T18:06:02;6.97;;;2.72;;
54823;SDS011;40724;53.196;5.980;2023-02-27T18:08:28;3.72;;;2.47;;
54823;SDS011;40724;53.196;5.980;2023-02-27T18:10:55;5.45;;;2.58;;